Time;durP1;ratioP1;P1;durP2;ratioP2;P2;SDS_P1;SDS_P2;PMS_P1;PMS_P2;Temp;Humidity;BMP_temperature;BMP_pressure;BME280_temperature;BME280_humidity;BME280_pressure;Samples;Min_cycle;Max_cycle;Signal;HPM_P1;HPM_P2
2022/06/28 00:01:04;;;;;;;11.27;8.77;;;12.50;99.90;;;;;;5035259;28;20210;-64
2022/06/28 00:03:30;;;;;;;13.83;9.17;;;12.50;99.90;;;;;;5035222;28;20205;-63
2022/06/28 00:05:57;;;;;;;11.83;9.17;;;12.50;99.90;;;;;;5034290;28;20266;-64
2022/06/28 00:08:23;;;;;;;15.13;9.43;;;12.50;99.90;;;;;;5035368;28;20206;-64
2022/06/28 00:10:50;;;;;;;16.70;9.80;;;12.50;99.90;;;;;;5035283;28;20268;-64
2022/06/28 00:13:17;;;;;;;17.67;8.83;;;12.50;99.90;;;;;;5034924;28;20216;-64
2022/06/28 00:18:29;;;;;;;15.73;10.37;;;12.50;99.90;;;;;;5034582;28;20208;-63
2022/06/28 00:20:56;;;;;;;17.37;11.27;;;12.40;99.90;;;;;;5034726;28;20212;-63
2022/06/28 00:23:22;;;;;;;18.27;11.70;;;12.40;99.90;;;;;;5034745;28;20207;-64
2022/06/28 00:25:49;;;;;;;16.63;11.40;;;12.50;99.90;;;;;;5034707;28;20208;-64
2022/06/28 00:28:16;;;;;;;16.47;10.73;;;12.50;99.90;;;;;;5034386;28;20648;-64
2022/06/28 00:30:42;;;;;;;19.07;11.10;;;12.50;99.90;;;;;;5034716;28;20271;-64
2022/06/28 00:33:09;;;;;;;20.00;11.73;;;12.50;99.90;;;;;;5034083;28;20665;-64
2022/06/28 00:35:37;;;;;;;22.43;11.93;;;12.50;99.90;;;;;;5034599;28;20320;-63
2022/06/28 00:38:04;;;;;;;18.17;11.70;;;12.50;99.90;;;;;;5033861;28;20734;-64
2022/06/28 00:40:32;;;;;;;17.90;11.60;;;12.40;99.90;;;;;;5033983;28;20226;-63
2022/06/28 00:42:59;;;;;;;18.40;11.10;;;12.40;99.90;;;;;;5034274;28;20240;-64
2022/06/28 00:45:26;;;;;;;15.97;11.63;;;12.50;99.90;;;;;;5034106;28;20557;-64
2022/06/28 00:47:54;;;;;;;18.13;11.13;;;12.50;99.90;;;;;;5033868;28;20912;-66
2022/06/28 00:50:22;;;;;;;16.23;10.63;;;12.50;99.90;;;;;;5034167;28;20263;-65
2022/06/28 00:53:04;;;;;;;16.93;10.57;;;12.50;99.90;;;;;;5034328;28;20265;-65
2022/06/28 00:55:31;;;;;;;15.73;10.47;;;12.40;99.90;;;;;;5034240;28;20243;-65
2022/06/28 00:57:57;;;;;;;19.10;10.60;;;12.40;99.90;;;;;;5033406;28;20229;-65
2022/06/28 01:00:24;;;;;;;14.37;9.60;;;12.40;99.90;;;;;;5033792;28;20234;-65
2022/06/28 01:02:51;;;;;;;15.03;9.97;;;12.40;99.90;;;;;;5034053;28;20280;-65
2022/06/28 01:05:18;;;;;;;14.43;9.80;;;12.40;99.90;;;;;;5034117;28;20213;-65
2022/06/28 01:07:45;;;;;;;13.60;9.10;;;12.30;99.90;;;;;;5033153;28;20303;-65
2022/06/28 01:10:13;;;;;;;13.47;9.80;;;12.30;99.90;;;;;;5034027;28;20201;-65
2022/06/28 01:12:39;;;;;;;14.60;10.07;;;12.30;99.90;;;;;;5033512;28;20217;-65
2022/06/28 01:15:07;;;;;;;13.67;9.77;;;12.30;99.90;;;;;;5033968;28;20219;-65
2022/06/28 01:17:34;;;;;;;15.20;10.00;;;12.30;99.90;;;;;;5033443;28;20239;-65
2022/06/28 01:20:01;;;;;;;14.50;9.90;;;12.20;99.90;;;;;;5033680;28;20229;-65
2022/06/28 01:22:30;;;;;;;16.93;11.10;;;12.20;99.90;;;;;;5033747;28;20234;-65
2022/06/28 01:24:58;;;;;;;19.13;10.70;;;12.20;99.90;;;;;;5033426;28;20206;-65
2022/06/28 01:27:26;;;;;;;13.40;10.30;;;12.20;99.90;;;;;;5032846;28;20318;-65
2022/06/28 01:29:53;;;;;;;15.57;10.27;;;12.30;99.90;;;;;;5033537;28;20625;-65
2022/06/28 01:32:20;;;;;;;18.53;10.53;;;12.20;99.90;;;;;;5033693;28;20214;-65
2022/06/28 01:34:47;;;;;;;18.33;11.00;;;12.20;99.90;;;;;;5033271;28;20205;-65
2022/06/28 01:37:13;;;;;;;14.90;10.23;;;12.20;99.90;;;;;;5033017;28;20231;-65
2022/06/28 01:39:40;;;;;;;14.97;10.23;;;12.20;99.90;;;;;;5033333;28;20226;-65
2022/06/28 01:42:09;;;;;;;15.73;10.03;;;12.20;99.90;;;;;;5032926;28;20212;-65
2022/06/28 01:44:36;;;;;;;18.77;10.07;;;12.20;99.90;;;;;;5033441;28;20206;-65
2022/06/28 01:47:04;;;;;;;18.77;11.40;;;12.20;99.90;;;;;;5032731;28;20230;-65
2022/06/28 01:49:31;;;;;;;16.23;10.80;;;12.20;99.90;;;;;;5033196;28;20254;-65
2022/06/28 01:51:58;;;;;;;13.33;9.47;;;12.30;99.90;;;;;;5033138;28;20294;-65
2022/06/28 01:54:25;;;;;;;12.10;10.07;;;12.30;99.90;;;;;;5032935;28;20663;-65
2022/06/28 01:56:52;;;;;;;14.77;9.40;;;12.30;99.90;;;;;;5032732;28;20230;-64
2022/06/28 01:59:20;;;;;;;12.80;9.63;;;12.30;99.90;;;;;;5033164;28;20222;-65
2022/06/28 02:01:47;;;;;;;12.47;9.23;;;12.30;99.90;;;;;;5033076;28;20208;-65
2022/06/28 02:04:21;;;;;;;14.50;9.67;;;12.20;99.90;;;;;;5032750;28;20676;-65
2022/06/28 02:06:48;;;;;;;16.07;10.00;;;12.20;99.90;;;;;;5032410;28;20226;-65
2022/06/28 02:09:15;;;;;;;11.70;8.93;;;12.20;99.90;;;;;;5032589;28;20217;-65
2022/06/28 02:11:42;;;;;;;11.60;8.97;;;12.20;99.90;;;;;;5032925;28;20254;-65
2022/06/28 02:14:09;;;;;;;10.70;8.47;;;12.20;99.90;;;;;;5032557;28;20237;-65
2022/06/28 02:16:38;;;;;;;10.03;8.50;;;12.20;99.90;;;;;;5032229;28;20280;-65
2022/06/28 02:19:05;;;;;;;12.10;7.93;;;12.10;99.90;;;;;;5031643;28;20732;-65
2022/06/28 02:21:36;;;;;;;11.03;8.20;;;12.10;99.90;;;;;;5032325;28;20204;-65
2022/06/28 02:24:03;;;;;;;11.93;8.30;;;12.10;99.90;;;;;;5032661;28;20206;-65
2022/06/28 02:26:32;;;;;;;11.47;8.13;;;12.10;99.90;;;;;;5032077;28;20256;-65
2022/06/28 02:28:59;;;;;;;10.43;8.10;;;12.10;99.90;;;;;;5032459;28;20257;-65
2022/06/28 02:31:25;;;;;;;12.60;9.03;;;12.10;99.90;;;;;;5032252;28;20264;-65
2022/06/28 02:33:54;;;;;;;14.23;8.20;;;12.10;99.90;;;;;;5032241;28;20261;-65
2022/06/28 02:41:54;;;;;;;10.30;8.63;;;12.10;99.90;;;;;;4993556;28;20292;-65
2022/06/28 02:44:20;;;;;;;16.53;8.90;;;12.10;99.90;;;;;;5032059;28;20257;-65
2022/06/28 02:46:48;;;;;;;11.13;8.67;;;12.10;99.90;;;;;;5032062;28;20260;-65
2022/06/28 02:49:16;;;;;;;11.67;7.53;;;12.20;99.90;;;;;;5031863;28;20214;-65
2022/06/28 02:51:43;;;;;;;11.20;8.10;;;12.20;99.90;;;;;;5032255;28;20206;-65
2022/06/28 02:54:10;;;;;;;10.57;8.17;;;12.20;99.90;;;;;;5032023;28;20214;-65
2022/06/28 02:56:37;;;;;;;13.13;8.63;;;12.20;99.90;;;;;;5031547;28;20261;-65
2022/06/28 02:59:04;;;;;;;13.53;8.67;;;12.10;99.90;;;;;;5031754;28;20263;-65
2022/06/28 03:01:31;;;;;;;11.40;8.30;;;12.10;99.90;;;;;;5031982;28;20226;-65
2022/06/28 03:03:58;;;;;;;12.87;8.13;;;12.10;99.90;;;;;;5031960;28;20622;-65
2022/06/28 03:06:26;;;;;;;11.03;8.43;;;12.10;99.90;;;;;;5031582;28;20265;-65
2022/06/28 03:08:52;;;;;;;14.53;8.40;;;12.10;99.90;;;;;;5031854;28;20272;-65
2022/06/28 03:11:19;;;;;;;12.57;8.00;;;12.10;99.90;;;;;;5031294;28;20212;-65
2022/06/28 03:13:45;;;;;;;10.67;8.13;;;12.10;99.90;;;;;;5031623;28;20207;-65
2022/06/28 03:16:12;;;;;;;13.93;8.83;;;12.10;99.90;;;;;;5031503;28;20795;-65
2022/06/28 03:18:39;;;;;;;15.07;7.80;;;12.10;99.90;;;;;;5031624;28;20702;-65
2022/06/28 03:21:05;;;;;;;9.60;7.57;;;12.00;99.90;;;;;;5031350;28;20317;-65
2022/06/28 03:23:33;;;;;;;11.63;8.47;;;12.10;99.90;;;;;;5031716;28;20209;-65
2022/06/28 03:26:00;;;;;;;16.27;8.63;;;12.10;99.90;;;;;;5030939;28;20677;-65
2022/06/28 03:28:27;;;;;;;11.33;8.43;;;12.10;99.90;;;;;;5031651;28;20210;-65
2022/06/28 03:30:53;;;;;;;16.43;8.27;;;12.00;99.90;;;;;;5033842;28;20199;-65
2022/06/28 03:33:20;;;;;;;11.07;8.60;;;12.00;99.90;;;;;;5035720;28;20558;-65
2022/06/28 03:35:47;;;;;;;16.47;9.83;;;12.00;99.90;;;;;;5035570;28;20628;-65
2022/06/28 03:38:13;;;;;;;15.30;10.00;;;12.10;99.90;;;;;;5035255;28;20237;-65
2022/06/28 03:40:41;;;;;;;17.77;9.83;;;12.10;99.90;;;;;;5035308;28;20273;-65
2022/06/28 03:43:08;;;;;;;15.00;9.37;;;12.10;99.90;;;;;;5035154;28;20896;-65
2022/06/28 03:45:34;;;;;;;13.73;9.13;;;12.10;99.90;;;;;;5035531;28;20216;-65
2022/06/28 03:48:01;;;;;;;14.40;9.87;;;12.10;99.90;;;;;;5035203;28;20295;-65
2022/06/28 03:50:28;;;;;;;15.67;8.83;;;12.10;99.90;;;;;;5035211;28;20240;-65
2022/06/28 03:52:54;;;;;;;11.83;9.40;;;12.10;99.90;;;;;;5035314;28;20268;-65
2022/06/28 03:55:21;;;;;;;15.63;10.43;;;12.10;99.90;;;;;;5034849;28;20266;-65
2022/06/28 03:57:49;;;;;;;16.53;11.67;;;12.20;99.90;;;;;;5035009;28;20236;-65
2022/06/28 04:00:16;;;;;;;14.70;10.30;;;12.20;99.90;;;;;;5035015;28;20227;-65
2022/06/28 04:02:43;;;;;;;14.80;9.60;;;12.20;99.90;;;;;;5035093;28;20673;-65
2022/06/28 04:05:09;;;;;;;13.50;9.60;;;12.20;99.90;;;;;;5034860;28;20269;-65
2022/06/28 04:07:36;;;;;;;12.67;8.20;;;12.20;99.90;;;;;;5034580;28;20261;-65
2022/06/28 04:10:03;;;;;;;12.37;9.00;;;12.30;99.90;;;;;;5034917;28;20199;-65
2022/06/28 04:12:30;;;;;;;12.30;9.00;;;12.30;99.90;;;;;;5034603;28;20217;-65
2022/06/28 04:14:58;;;;;;;14.40;9.13;;;12.30;99.90;;;;;;5035239;28;20273;-65
2022/06/28 04:17:25;;;;;;;12.17;8.80;;;12.40;99.90;;;;;;5034334;28;20232;-62
2022/06/28 04:19:51;;;;;;;12.60;8.90;;;12.40;99.90;;;;;;5035050;28;20274;-62
2022/06/28 04:22:18;;;;;;;11.07;8.37;;;12.40;99.90;;;;;;5034817;28;20221;-63
2022/06/28 04:24:45;;;;;;;11.20;8.73;;;12.40;99.90;;;;;;5034842;28;20275;-62
2022/06/28 04:27:11;;;;;;;12.63;9.47;;;12.50;99.90;;;;;;5034347;28;20794;-62
2022/06/28 04:29:38;;;;;;;14.77;8.60;;;12.50;99.90;;;;;;5034894;28;20208;-62
2022/06/28 04:32:07;;;;;;;13.33;8.23;;;12.50;99.90;;;;;;5034752;28;20201;-62
2022/06/28 04:34:34;;;;;;;17.03;9.83;;;12.50;99.90;;;;;;5034514;28;20264;-62
2022/06/28 04:37:00;;;;;;;11.43;8.90;;;12.60;99.90;;;;;;5034653;28;20226;-62
2022/06/28 04:39:27;;;;;;;14.63;9.30;;;12.60;99.90;;;;;;5052781;28;20266;-63
2022/06/28 04:41:54;;;;;;;13.73;9.00;;;12.60;99.90;;;;;;5053504;28;20221;-62
2022/06/28 04:44:20;;;;;;;13.37;9.53;;;12.70;99.90;;;;;;5054371;28;20620;-62
2022/06/28 04:46:47;;;;;;;13.90;9.33;;;12.70;99.90;;;;;;5053642;28;20711;-62
2022/06/28 04:49:15;;;;;;;13.23;9.63;;;12.80;99.90;;;;;;5054689;28;20212;-64
2022/06/28 04:51:42;;;;;;;17.77;10.20;;;12.80;99.90;;;;;;5053615;28;20266;-64
2022/06/28 04:54:08;;;;;;;14.70;9.40;;;12.90;99.90;;;;;;5054045;28;20269;-63
2022/06/28 04:56:35;;;;;;;16.93;9.90;;;12.90;99.90;;;;;;5053274;28;20640;-63
2022/06/28 04:59:01;;;;;;;16.80;10.73;;;13.00;99.90;;;;;;5053735;28;20224;-63
2022/06/28 05:01:28;;;;;;;15.57;9.90;;;13.00;99.90;;;;;;5053700;28;20247;-63
2022/06/28 05:03:55;;;;;;;14.80;9.27;;;13.00;99.90;;;;;;5053624;28;20263;-63
2022/06/28 05:06:23;;;;;;;14.97;9.50;;;13.10;99.90;;;;;;5053736;28;20232;-63
2022/06/28 05:08:49;;;;;;;13.83;9.00;;;13.20;99.90;;;;;;5053181;28;20201;-63
2022/06/28 05:11:16;;;;;;;13.20;9.07;;;13.20;99.90;;;;;;5053767;28;20351;-62
2022/06/28 05:13:43;;;;;;;12.07;8.67;;;13.30;99.90;;;;;;5053285;28;20275;-63
2022/06/28 05:16:10;;;;;;;14.23;9.13;;;13.30;99.90;;;;;;5053093;28;20276;-63
2022/06/28 05:18:36;;;;;;;13.33;9.63;;;13.40;99.90;;;;;;5053235;28;20217;-63
2022/06/28 05:21:03;;;;;;;13.90;8.10;;;13.40;99.90;;;;;;5053801;28;20298;-64
2022/06/28 05:23:31;;;;;;;10.60;8.17;;;13.50;99.90;;;;;;5053226;28;20684;-65
2022/06/28 05:25:58;;;;;;;14.93;8.53;;;13.60;99.90;;;;;;5043822;28;20263;-63
2022/06/28 05:28:25;;;;;;;10.77;7.17;;;13.60;99.90;;;;;;5052567;28;20401;-64
2022/06/28 05:30:53;;;;;;;8.53;6.83;;;13.70;99.90;;;;;;5052553;28;20205;-63
2022/06/28 05:33:20;;;;;;;10.50;6.80;;;13.80;99.90;;;;;;5052934;28;20706;-63
2022/06/28 05:35:47;;;;;;;12.57;7.30;;;13.80;99.90;;;;;;5052491;28;20619;-63
2022/06/28 05:38:14;;;;;;;10.23;6.93;;;13.90;99.90;;;;;;5051823;28;20206;-63
2022/06/28 05:40:42;;;;;;;11.37;6.27;;;13.90;99.90;;;;;;5052689;28;20217;-63
2022/06/28 05:43:09;;;;;;;11.27;6.57;;;14.00;99.90;;;;;;5052113;28;20675;-62
2022/06/28 05:45:35;;;;;;;9.60;6.50;;;14.00;99.90;;;;;;5052522;28;20209;-63
2022/06/28 05:48:02;;;;;;;9.13;7.30;;;14.10;99.90;;;;;;5051794;28;20226;-64
2022/06/28 05:50:29;;;;;;;10.67;6.93;;;14.20;99.90;;;;;;5052430;28;20205;-63
2022/06/28 05:52:55;;;;;;;9.27;6.53;;;14.20;99.90;;;;;;5051483;28;20205;-63
2022/06/28 05:55:22;;;;;;;10.43;7.13;;;14.30;99.90;;;;;;5052274;28;20209;-63
2022/06/28 05:57:50;;;;;;;8.77;6.03;;;14.40;99.90;;;;;;5051810;28;20233;-63
2022/06/28 06:00:17;;;;;;;8.17;5.80;;;14.40;99.90;;;;;;5051731;28;20676;-63
2022/06/28 06:02:44;;;;;;;8.17;5.47;;;14.50;99.90;;;;;;5052333;28;20205;-63
2022/06/28 06:05:12;;;;;;;7.20;5.27;;;14.60;99.90;;;;;;5051872;28;20711;-63
2022/06/28 06:07:38;;;;;;;6.47;4.30;;;14.80;99.90;;;;;;5051062;28;20822;-64
2022/06/28 06:10:06;;;;;;;6.80;5.37;;;14.80;99.90;;;;;;5052244;28;20209;-63
2022/06/28 06:12:33;;;;;;;8.13;4.53;;;14.90;99.90;;;;;;5051625;28;20202;-63
2022/06/28 06:15:01;;;;;;;7.60;4.47;;;15.00;99.90;;;;;;5051914;28;20217;-63
2022/06/28 06:17:28;;;;;;;5.07;4.17;;;15.10;99.90;;;;;;5051012;28;20284;-64
2022/06/28 06:19:55;;;;;;;7.10;4.17;;;15.10;99.90;;;;;;5052001;28;20215;-64
2022/06/28 06:22:21;;;;;;;4.93;3.97;;;15.20;99.90;;;;;;5052110;28;20221;-64
2022/06/28 06:24:49;;;;;;;10.40;4.20;;;15.30;99.90;;;;;;5051314;28;20297;-65
2022/06/28 06:27:15;;;;;;;5.13;3.97;;;15.30;99.90;;;;;;5050904;28;20287;-65
2022/06/28 06:29:42;;;;;;;6.57;4.10;;;15.40;99.90;;;;;;5051153;28;20691;-67
2022/06/28 06:32:10;;;;;;;5.67;4.50;;;15.50;99.90;;;;;;5051875;28;20205;-65
2022/06/28 06:34:37;;;;;;;4.97;3.93;;;15.50;99.90;;;;;;5051685;28;20256;-65
2022/06/28 06:37:04;;;;;;;5.07;4.00;;;15.60;99.90;;;;;;5050480;28;20759;-63
2022/06/28 06:39:30;;;;;;;9.20;3.97;;;15.70;99.90;;;;;;5052014;28;20205;-63
2022/06/28 06:41:57;;;;;;;7.67;4.07;;;15.80;99.90;;;;;;5051378;28;20218;-66
2022/06/28 06:44:25;;;;;;;6.10;3.93;;;15.90;99.90;;;;;;5051694;28;20213;-66
2022/06/28 06:46:51;;;;;;;6.97;3.80;;;16.10;99.90;;;;;;5050629;28;20225;-63
2022/06/28 06:49:19;;;;;;;5.83;2.93;;;16.10;99.90;;;;;;5051113;28;20202;-64
2022/06/28 06:51:48;;;;;;;4.10;3.20;;;16.30;99.90;;;;;;5051393;28;20202;-64
2022/06/28 06:54:15;;;;;;;5.43;3.40;;;16.30;99.90;;;;;;5050738;28;20229;-64
2022/06/28 06:56:42;;;;;;;6.67;3.50;;;16.40;99.90;;;;;;5050458;28;20287;-64
2022/06/28 06:59:11;;;;;;;6.90;2.50;;;16.60;99.90;;;;;;5050958;28;20206;-64
2022/06/28 07:01:38;;;;;;;11.40;2.87;;;16.70;99.90;;;;;;5050921;28;20315;-65
2022/06/28 07:04:05;;;;;;;5.20;2.50;;;16.80;99.90;;;;;;5050899;28;20217;-64
2022/06/28 07:06:33;;;;;;;4.23;2.30;;;16.90;99.90;;;;;;5050565;28;20225;-64
2022/06/28 07:09:00;;;;;;;4.23;2.37;;;17.00;99.90;;;;;;5051078;28;20259;-64
2022/06/28 07:11:27;;;;;;;4.20;2.27;;;17.00;99.90;;;;;;5050935;28;20201;-65
2022/06/28 07:13:53;;;;;;;5.47;1.90;;;17.20;99.90;;;;;;5051487;28;20231;-65
2022/06/28 07:16:20;;;;;;;4.53;1.40;;;17.40;99.90;;;;;;5050567;28;20221;-64
2022/06/28 07:18:47;;;;;;;3.97;1.50;;;17.50;71.40;;;;;;5050384;28;20279;-65
2022/06/28 07:21:13;;;;;;;4.07;1.47;;;17.70;58.20;;;;;;5050960;28;20307;-65
2022/06/28 07:23:42;;;;;;;3.13;1.40;;;17.80;1.00;;;;;;5050419;28;20733;-64
2022/06/28 07:26:09;;;;;;;4.50;1.40;;;17.90;1.00;;;;;;5051285;28;20707;-64
2022/06/28 07:28:36;;;;;;;4.20;1.47;;;18.00;1.00;;;;;;5050630;28;20255;-66
2022/06/28 07:31:02;;;;;;;2.93;1.20;;;18.10;1.00;;;;;;5051007;28;20334;-65
2022/06/28 07:33:29;;;;;;;4.23;1.37;;;18.30;28.90;;;;;;5050843;28;20205;-65
2022/06/28 07:35:56;;;;;;;4.87;1.10;;;18.40;99.90;;;;;;5049771;28;20240;-64
2022/06/28 07:38:23;;;;;;;2.97;1.47;;;18.50;95.50;;;;;;5050321;28;20259;-66
2022/06/28 07:40:52;;;;;;;4.40;1.30;;;18.60;1.00;;;;;;5050472;28;20231;-66
2022/06/28 07:43:19;;;;;;;3.10;1.30;;;18.80;99.90;;;;;;5050803;28;20255;-66
2022/06/28 07:45:45;;;;;;;2.63;1.13;;;18.80;1.00;;;;;;5050983;28;20247;-65
2022/06/28 07:48:12;;;;;;;2.57;1.17;;;18.80;99.90;;;;;;5050116;28;20598;-65
2022/06/28 07:53:24;;;;;;;3.97;1.10;;;19.10;99.90;;;;;;5050622;28;20680;-65
2022/06/28 07:55:52;;;;;;;3.80;1.00;;;19.40;99.90;;;;;;5050919;28;20206;-65
2022/06/28 07:58:18;;;;;;;3.10;1.50;;;19.40;9.90;;;;;;5050131;28;20267;-69
2022/06/28 08:00:45;;;;;;;3.73;1.20;;;19.40;1.00;;;;;;5050701;28;20267;-66
2022/06/28 08:03:12;;;;;;;2.13;0.97;;;19.50;99.90;;;;;;5050096;28;20233;-66
2022/06/28 08:05:39;;;;;;;4.43;1.50;;;19.60;1.00;;;;;;5049964;28;20218;-65
2022/06/28 08:08:06;;;;;;;3.37;0.87;;;19.70;1.00;;;;;;5050002;28;20309;-65
2022/06/28 08:10:32;;;;;;;3.97;1.50;;;19.60;99.90;;;;;;5050218;28;20739;-64
2022/06/28 08:13:00;;;;;;;3.80;1.10;;;19.70;1.00;;;;;;5050405;28;20232;-64
2022/06/28 08:15:27;;;;;;;3.80;1.00;;;19.70;1.00;;;;;;5050609;28;20741;-64
2022/06/28 08:17:54;;;;;;;1.63;1.10;;;19.70;1.00;;;;;;5053096;28;20237;-65
2022/06/28 08:20:21;;;;;;;3.00;1.10;;;19.80;1.00;;;;;;5054480;28;20291;-67
2022/06/28 08:22:48;;;;;;;10.40;1.40;;;19.90;10.10;;;;;;5053752;28;20229;-63
2022/06/28 08:25:15;;;;;;;4.50;1.33;;;19.90;1.00;;;;;;5054058;28;20680;-66
2022/06/28 08:27:41;;;;;;;2.87;1.47;;;19.90;1.00;;;;;;5053256;28;20225;-67
2022/06/28 08:30:10;;;;;;;2.87;1.30;;;20.10;1.00;;;;;;5053641;28;20274;-66
2022/06/28 08:32:37;;;;;;;3.30;0.80;;;20.20;1.00;;;;;;5053934;28;20212;-68
2022/06/28 08:35:04;;;;;;;2.07;1.10;;;20.30;99.90;;;;;;5053603;28;20205;-67
2022/06/28 08:37:31;;;;;;;2.93;1.10;;;20.30;1.00;;;;;;5053408;28;20225;-67
2022/06/28 08:39:58;;;;;;;3.70;1.00;;;20.60;1.00;;;;;;5053877;28;20197;-66
2022/06/28 08:42:27;;;;;;;4.50;1.30;;;20.70;1.00;;;;;;5053545;28;20217;-65
2022/06/28 08:44:54;;;;;;;2.07;0.90;;;20.90;1.00;;;;;;5053325;28;20209;-67
2022/06/28 08:47:24;;;;;;;2.13;1.17;;;20.90;1.00;;;;;;5052570;28;20651;-64
2022/06/28 08:49:55;;;;;;;4.27;1.50;;;20.80;99.90;;;;;;5053665;28;20225;-64
2022/06/28 08:52:24;;;;;;;5.33;1.20;;;20.90;99.90;;;;;;5053289;28;20202;-64
2022/06/28 08:54:51;;;;;;;4.83;1.10;;;21.00;1.00;;;;;;5053605;28;20210;-64
2022/06/28 08:57:20;;;;;;;2.10;1.00;;;21.10;99.90;;;;;;5052546;28;20222;-64
2022/06/28 08:59:47;;;;;;;2.63;0.77;;;21.10;99.90;;;;;;5053448;28;20206;-65
2022/06/28 09:02:16;;;;;;;5.63;0.90;;;21.10;99.90;;;;;;5053377;28;20230;-65
2022/06/28 09:04:50;;;;;;;4.40;1.00;;;21.30;99.90;;;;;;5053040;28;20633;-64
2022/06/28 09:07:17;;;;;;;2.50;1.30;;;21.20;99.90;;;;;;5052797;28;20229;-64
2022/06/28 09:09:44;;;;;;;3.03;1.27;;;21.20;99.90;;;;;;5052894;28;20648;-66
2022/06/28 09:12:11;;;;;;;2.27;0.90;;;21.20;99.90;;;;;;5053484;28;20232;-67
2022/06/28 09:14:38;;;;;;;5.23;1.10;;;21.40;1.00;;;;;;5053640;28;20630;-67
2022/06/28 09:17:20;;;;;;;3.43;0.90;;;21.30;99.90;;;;;;5052026;28;20244;-66
2022/06/28 09:19:52;;;;;;;2.90;1.00;;;21.60;99.90;;;;;;5053632;28;20652;-65
2022/06/28 09:22:31;;;;;;;3.10;0.90;;;21.60;99.90;;;;;;5052557;28;20230;-65
2022/06/28 09:24:58;;;;;;;2.43;1.10;;;21.60;99.90;;;;;;5053166;28;20267;-65
2022/06/28 09:27:30;;;;;;;2.33;1.00;;;21.30;99.90;;;;;;5052171;28;20307;-65
2022/06/28 09:29:57;;;;;;;4.07;1.20;;;21.40;99.90;;;;;;5052945;28;20695;-65
2022/06/28 09:32:28;;;;;;;1.80;1.03;;;21.40;99.90;;;;;;5052949;28;20833;-66
2022/06/28 09:34:58;;;;;;;1.40;0.90;;;21.60;99.90;;;;;;5052529;28;20699;-67
2022/06/28 09:37:41;;;;;;;2.20;0.90;;;21.90;99.90;;;;;;5052601;28;20785;-66
2022/06/28 09:40:17;;;;;;;2.80;1.37;;;22.10;99.90;;;;;;5052824;28;20296;-67
2022/06/28 09:42:45;;;;;;;3.93;0.90;;;22.10;99.90;;;;;;5052836;28;20217;-68
2022/06/28 09:45:13;;;;;;;6.50;1.23;;;22.40;99.90;;;;;;5051874;28;20213;-67
2022/06/28 09:47:45;;;;;;;2.30;0.90;;;22.40;99.90;;;;;;5051861;28;20225;-67
2022/06/28 09:50:20;;;;;;;1.73;1.20;;;22.60;99.90;;;;;;5052742;28;20214;-64
2022/06/28 09:52:47;;;;;;;2.40;1.13;;;22.50;99.90;;;;;;5052319;28;20197;-64
2022/06/28 09:55:16;;;;;;;3.00;1.00;;;22.30;99.90;;;;;;5052275;28;20997;-64
2022/06/28 09:57:45;;;;;;;1.30;0.93;;;21.90;99.90;;;;;;5051066;28;20283;-66
2022/06/28 10:00:13;;;;;;;2.43;0.97;;;21.80;99.90;;;;;;5052670;28;20201;-66
2022/06/28 10:02:42;;;;;;;5.53;1.00;;;22.00;99.90;;;;;;5051920;28;20279;-67
2022/06/28 10:05:09;;;;;;;4.33;1.10;;;22.30;99.90;;;;;;5051953;28;20237;-67
2022/06/28 10:07:38;;;;;;;1.63;0.87;;;22.40;99.90;;;;;;5051855;28;20229;-66
2022/06/28 10:10:07;;;;;;;2.97;1.00;;;22.50;99.90;;;;;;5051899;28;20622;-66
2022/06/28 10:15:19;;;;;;;3.23;0.97;;;22.60;99.90;;;;;;5051250;28;20204;-69
2022/06/28 10:17:55;;;;;;;2.73;0.70;;;22.80;99.90;;;;;;5051116;28;20229;-68
2022/06/28 10:20:25;;;;;;;4.10;0.93;;;22.90;99.90;;;;;;5051651;28;20725;-65
2022/06/28 10:22:53;;;;;;;3.57;1.17;;;23.20;99.90;;;;;;5051571;28;20228;-65
2022/06/28 10:25:22;;;;;;;4.87;1.00;;;23.30;99.90;;;;;;5051843;28;20241;-64
2022/06/28 10:27:51;;;;;;;2.63;0.70;;;23.50;99.90;;;;;;5050874;28;20664;-65
2022/06/28 10:30:23;;;;;;;2.93;1.00;;;23.50;99.90;;;;;;5051895;28;20210;-66
2022/06/28 10:32:51;;;;;;;4.00;0.90;;;23.30;99.90;;;;;;5051765;28;20568;-63
2022/06/28 10:36:00;;;;;;;2.40;0.93;;;22.60;99.90;;;;;;5051484;28;20216;-64
2022/06/28 10:38:29;;;;;;;2.70;1.17;;;22.80;99.90;;;;;;5050360;28;20209;-63
2022/06/28 10:41:10;;;;;;;2.73;0.90;;;23.00;99.90;;;;;;5051639;28;20296;-63
2022/06/28 10:43:50;;;;;;;2.60;0.93;;;23.10;99.90;;;;;;5051301;28;20237;-63
2022/06/28 10:46:17;;;;;;;3.07;0.90;;;23.10;99.90;;;;;;5050954;28;20652;-64
2022/06/28 10:49:18;;;;;;;1.17;0.70;;;23.10;99.90;;;;;;5051452;28;20205;-65
2022/06/28 10:52:10;;;;;;;4.90;0.90;;;23.20;99.90;;;;;;5051034;28;20205;-67
2022/06/28 10:54:40;;;;;;;2.03;0.93;;;23.10;99.90;;;;;;5042242;28;20240;-65
2022/06/28 10:57:23;;;;;;;4.13;1.00;;;23.30;99.90;;;;;;5050447;28;20317;-63
2022/06/28 10:59:51;;;;;;;2.53;1.00;;;23.10;99.90;;;;;;5051513;28;20596;-63
2022/06/28 11:02:18;;;;;;;2.00;1.00;;;23.30;99.90;;;;;;5050498;28;20226;-63
2022/06/28 11:04:46;;;;;;;2.50;1.00;;;23.40;99.90;;;;;;5051333;28;20221;-64
2022/06/28 11:07:23;;;;;;;2.43;0.90;;;23.40;99.90;;;;;;5050335;28;20291;-64
2022/06/28 11:10:06;;;;;;;3.17;0.77;;;23.60;99.90;;;;;;5050900;28;20246;-64
2022/06/28 11:12:38;;;;;;;4.83;1.80;;;23.50;99.90;;;;;;5051297;28;20205;-64
2022/06/28 11:15:07;;;;;;;2.33;0.80;;;23.50;99.90;;;;;;5050570;28;20296;-64
2022/06/28 11:17:35;;;;;;;3.03;1.10;;;22.90;99.90;;;;;;5050398;28;20260;-65
2022/06/28 11:20:03;;;;;;;4.37;1.00;;;22.60;99.90;;;;;;5050750;28;20275;-66
2022/06/28 11:22:32;;;;;;;2.83;1.00;;;22.50;99.90;;;;;;5050574;28;20650;-66
2022/06/28 11:25:02;;;;;;;1.50;0.97;;;22.40;99.90;;;;;;5051214;28;20205;-65
2022/06/28 11:27:28;;;;;;;2.23;0.90;;;22.50;99.90;;;;;;5049727;28;20294;-65
2022/06/28 11:30:02;;;;;;;4.17;1.30;;;22.30;99.90;;;;;;5050874;28;20197;-66
2022/06/28 11:32:31;;;;;;;2.60;0.93;;;22.20;99.90;;;;;;5050521;28;20205;-67
2022/06/28 11:35:03;;;;;;;2.53;0.80;;;22.10;99.90;;;;;;5051075;28;20292;-67
2022/06/28 11:37:32;;;;;;;3.03;0.83;;;22.00;99.90;;;;;;5050179;28;20279;-63
2022/06/28 11:40:01;;;;;;;2.90;1.10;;;22.20;99.90;;;;;;5050356;28;20213;-62
2022/06/28 11:42:28;;;;;;;2.13;0.93;;;22.40;99.90;;;;;;5051004;28;20226;-62
2022/06/28 11:44:56;;;;;;;3.00;1.03;;;22.60;99.90;;;;;;5050429;28;20209;-62
2022/06/28 11:47:23;;;;;;;2.63;1.03;;;22.70;99.90;;;;;;5050138;28;20671;-62
2022/06/28 11:49:52;;;;;;;1.10;0.70;;;22.40;99.90;;;;;;5050404;28;20209;-62
2022/06/28 11:52:19;;;;;;;1.57;0.80;;;22.60;99.90;;;;;;5053378;28;20690;-62
2022/06/28 11:54:55;;;;;;;2.93;1.00;;;22.90;99.90;;;;;;5055045;28;20201;-62
2022/06/28 11:57:23;;;;;;;2.17;1.10;;;23.20;99.90;;;;;;5053626;28;20315;-62
2022/06/28 11:59:58;;;;;;;2.33;1.03;;;23.50;99.90;;;;;;5054888;28;20217;-62
2022/06/28 12:02:38;;;;;;;2.60;0.90;;;23.90;99.90;;;;;;5054208;28;20212;-62
2022/06/28 12:05:06;;;;;;;1.43;0.77;;;24.10;99.90;;;;;;5054522;28;20209;-62
2022/06/28 12:07:34;;;;;;;1.80;0.70;;;24.40;99.90;;;;;;5053641;28;20225;-62
2022/06/28 12:10:00;;;;;;;3.00;0.70;;;24.60;99.90;;;;;;5054484;28;20275;-62
2022/06/28 12:12:29;;;;;;;3.97;0.80;;;24.80;99.90;;;;;;5054435;28;20213;-67
2022/06/28 12:14:57;;;;;;;1.87;0.60;;;25.00;99.90;;;;;;5053986;28;20202;-65
2022/06/28 12:17:23;;;;;;;2.53;0.90;;;25.10;99.90;;;;;;5053213;28;20236;-64
2022/06/28 12:19:50;;;;;;;3.83;0.80;;;25.00;99.90;;;;;;5053905;28;20255;-64
2022/06/28 12:22:19;;;;;;;3.00;0.90;;;24.30;99.90;;;;;;5053761;28;20320;-65
2022/06/28 12:24:49;;;;;;;3.27;0.80;;;23.90;99.90;;;;;;5051141;28;20214;-64
2022/06/28 12:27:18;;;;;;;1.07;0.60;;;23.70;99.90;;;;;;5033298;28;20226;-65
2022/06/28 12:29:47;;;;;;;1.87;0.80;;;23.70;99.90;;;;;;5033676;28;20206;-65
2022/06/28 12:32:13;;;;;;;3.50;0.80;;;23.70;99.90;;;;;;5033739;28;20218;-65
2022/06/28 12:34:41;;;;;;;1.77;0.83;;;23.50;99.90;;;;;;5033974;28;20216;-65
2022/06/28 12:37:08;;;;;;;2.10;0.90;;;23.10;99.90;;;;;;5034977;28;20227;-63
2022/06/28 12:39:36;;;;;;;2.10;0.80;;;22.80;99.90;;;;;;5053753;28;20209;-64
2022/06/28 12:42:03;;;;;;;1.83;0.80;;;22.70;99.90;;;;;;5053730;28;20742;-63
2022/06/28 12:44:30;;;;;;;2.33;0.93;;;23.10;99.90;;;;;;5053254;28;20278;-66
2022/06/28 12:46:59;;;;;;;2.47;0.90;;;23.30;99.90;;;;;;5053121;28;20325;-64
2022/06/28 12:49:26;;;;;;;2.93;1.60;;;23.30;99.90;;;;;;5035567;28;20214;-66
2022/06/28 12:51:53;;;;;;;4.43;2.00;;;23.30;99.90;;;;;;5033311;28;20233;-66
2022/06/28 12:54:20;;;;;;;2.57;0.90;;;23.60;99.90;;;;;;5033235;28;20264;-67
2022/06/28 12:56:47;;;;;;;2.67;0.60;;;23.80;99.90;;;;;;5032049;28;20716;-67
2022/06/28 12:59:13;;;;;;;1.13;0.50;;;24.20;99.90;;;;;;5032992;28;20565;-68
2022/06/28 13:01:40;;;;;;;1.87;0.80;;;24.50;99.90;;;;;;5032348;28;20228;-67